createdAt,value
2023-03-01T00:04:37.055Z,1.18
2023-03-01T00:09:41.292Z,1.15
2023-03-01T00:14:44.564Z,1.10
2023-03-01T00:19:47.801Z,1.07
2023-03-01T00:31:57.317Z,1.03
2023-03-01T00:37:06.418Z,1.02
2023-03-01T00:42:09.777Z,0.95
2023-03-01T00:47:13.094Z,0.96
2023-03-01T00:52:16.356Z,1.00
2023-03-01T00:57:20.102Z,1.02
2023-03-01T01:02:24.442Z,1.01
2023-03-01T01:07:28.077Z,0.99
2023-03-01T01:12:31.691Z,0.94
2023-03-01T01:17:35.016Z,0.92
2023-03-01T01:22:39.082Z,0.90
2023-03-01T01:27:42.470Z,0.84
2023-03-01T01:32:45.960Z,0.83
2023-03-01T01:37:49.308Z,0.78
2023-03-01T01:42:53.074Z,0.74
2023-03-01T01:48:02.056Z,0.71
2023-03-01T01:53:13.851Z,0.69
2023-03-01T01:58:20.509Z,0.68
2023-03-01T02:03:34.535Z,0.65
2023-03-01T02:08:42.479Z,0.60
2023-03-01T02:13:46.338Z,0.56
2023-03-01T02:18:51.465Z,0.56
2023-03-01T02:23:56.919Z,0.50
2023-03-01T02:29:00.535Z,0.44
2023-03-01T02:34:05.777Z,0.42
2023-03-01T02:39:15.501Z,0.41
2023-03-01T02:44:19.042Z,0.36
2023-03-01T02:49:25.999Z,0.32
2023-03-01T02:54:40.124Z,0.31
2023-03-01T02:59:44.509Z,0.30
2023-03-01T03:04:48.537Z,0.31
2023-03-01T03:09:52.056Z,0.26
2023-03-01T03:14:55.453Z,0.22
2023-03-01T03:19:58.890Z,0.21
2023-03-01T03:25:02.440Z,0.19
2023-03-01T03:30:13.486Z,0.16
2023-03-01T03:35:16.824Z,0.16
2023-03-01T03:40:20.141Z,0.14
2023-03-01T03:45:23.849Z,0.08
2023-03-01T03:50:27.521Z,0.04
2023-03-01T03:55:31.941Z,0.05
2023-03-01T04:00:37.877Z,0.04
2023-03-01T04:05:42.510Z,-0.00
2023-03-01T04:10:48.982Z,-0.09
2023-03-01T04:15:54.586Z,-0.11
2023-03-01T04:20:57.899Z,-0.10
2023-03-01T04:26:00.993Z,-0.09
2023-03-01T04:31:14.326Z,-0.11
2023-03-01T04:36:18.895Z,-0.10
2023-03-01T04:41:23.813Z,-0.07
2023-03-01T04:46:27.651Z,-0.09
2023-03-01T04:51:30.984Z,-0.12
2023-03-01T04:56:34.142Z,-0.13
2023-03-01T05:01:38.216Z,-0.15
2023-03-01T05:06:41.689Z,-0.12
2023-03-01T05:11:45.714Z,-0.06
2023-03-01T05:16:49.235Z,-0.01
2023-03-01T05:22:07.939Z,-0.03
2023-03-01T05:27:11.172Z,0.05
2023-03-01T05:32:16.962Z,0.03
2023-03-01T05:37:20.694Z,0.03
2023-03-01T05:42:24.078Z,0.07
2023-03-01T05:47:27.453Z,0.08
2023-03-01T05:52:30.566Z,0.03
2023-03-01T05:57:33.902Z,0.03
2023-03-01T06:02:37.308Z,0.07
2023-03-01T06:07:41.040Z,0.13
2023-03-01T06:12:44.928Z,0.14
2023-03-01T06:17:48.790Z,0.19
2023-03-01T06:22:52.872Z,0.35
2023-03-01T06:27:56.343Z,0.39
2023-03-01T06:33:02.589Z,0.41
2023-03-01T06:38:06.544Z,0.45
2023-03-01T06:43:09.886Z,0.51
2023-03-01T06:48:13.176Z,0.59
2023-03-01T06:53:16.498Z,0.70
2023-03-01T06:58:19.808Z,0.82
2023-03-01T07:03:23.880Z,1.00
2023-03-01T07:08:27.839Z,1.19
2023-03-01T07:13:31.308Z,1.37
2023-03-01T07:18:34.978Z,1.56
2023-03-01T07:23:38.654Z,1.74
2023-03-01T07:28:42.085Z,1.83
2023-03-01T07:33:45.432Z,1.92
2023-03-01T07:38:48.741Z,1.99
2023-03-01T07:43:51.835Z,2.08
2023-03-01T07:48:54.989Z,2.19
2023-03-01T07:53:58.177Z,2.33
2023-03-01T07:59:01.726Z,2.47
2023-03-01T08:04:08.263Z,2.63
2023-03-01T08:09:11.567Z,2.81
2023-03-01T08:14:14.914Z,3.01
2023-03-01T08:19:18.504Z,3.17
2023-03-01T08:24:22.080Z,3.31
2023-03-01T08:29:28.281Z,3.48
2023-03-01T08:34:32.704Z,3.64
2023-03-01T08:39:36.092Z,3.77
2023-03-01T08:44:39.387Z,3.89
2023-03-01T08:49:42.737Z,4.06
2023-03-01T08:54:46.334Z,4.08
2023-03-01T08:59:49.547Z,4.18
2023-03-01T09:04:52.989Z,4.34
2023-03-01T09:09:56.421Z,4.49
2023-03-01T09:15:05.135Z,4.61
2023-03-01T09:20:10.252Z,4.73
2023-03-01T09:25:21.665Z,4.88
2023-03-01T09:30:25.715Z,4.94
2023-03-01T09:35:29.260Z,5.04
2023-03-01T09:40:32.589Z,5.27
2023-03-01T09:45:40.891Z,5.45
2023-03-01T09:50:47.886Z,5.60
2023-03-01T09:56:01.283Z,5.73
2023-03-01T10:01:24.769Z,5.84
2023-03-01T10:06:34.917Z,6.00
2023-03-01T10:11:42.956Z,6.16
2023-03-01T10:17:00.114Z,6.34
2023-03-01T10:22:23.255Z,6.50
2023-03-01T10:27:35.963Z,6.68
2023-03-01T10:32:39.448Z,6.84
2023-03-01T10:37:59.058Z,7.01
2023-03-01T10:43:05.536Z,7.19
2023-03-01T10:48:25.712Z,7.47
2023-03-01T10:53:34.638Z,7.82
2023-03-01T10:58:39.897Z,8.10
2023-03-01T11:03:43.322Z,8.40
2023-03-01T11:08:49.150Z,8.56
2023-03-01T11:14:10.517Z,8.70
2023-03-01T11:19:22.519Z,8.78
2023-03-01T11:24:38.430Z,8.82
2023-03-01T11:29:49.359Z,8.80
2023-03-01T11:35:00.603Z,8.67
2023-03-01T11:40:13.371Z,8.67
2023-03-01T11:45:16.930Z,8.64
2023-03-01T11:50:36.349Z,8.71
2023-03-01T11:56:17.164Z,8.89
2023-03-01T12:01:42.549Z,9.14
2023-03-01T12:07:02.221Z,9.35
2023-03-01T12:12:27.204Z,9.60
2023-03-01T12:17:39.789Z,9.88
2023-03-01T12:22:55.253Z,10.14
2023-03-01T12:28:23.911Z,10.32
2023-03-01T12:33:51.796Z,10.43
2023-03-01T12:39:20.313Z,10.45
2023-03-01T12:44:48.209Z,10.41
2023-03-01T12:49:59.430Z,10.34
2023-03-01T12:55:08.061Z,10.30
2023-03-01T13:00:29.945Z,10.33
2023-03-01T13:05:43.465Z,10.48
2023-03-01T13:11:17.826Z,10.61
2023-03-01T13:16:40.656Z,10.79
2023-03-01T13:21:46.458Z,10.95
2023-03-01T13:27:08.391Z,11.07
2023-03-01T13:32:48.810Z,11.24
2023-03-01T13:37:52.232Z,11.37
2023-03-01T13:43:05.226Z,11.36
2023-03-01T13:48:25.513Z,11.18
2023-03-01T13:53:34.889Z,10.82
2023-03-01T13:58:56.469Z,10.45
2023-03-01T14:04:00.842Z,10.12
2023-03-01T14:09:09.781Z,9.88
2023-03-01T14:14:22.824Z,9.69
2023-03-01T14:19:33.482Z,9.48
2023-03-01T14:24:41.263Z,9.27
2023-03-01T14:29:45.457Z,9.13
2023-03-01T14:34:51.614Z,8.96
2023-03-01T14:39:56.484Z,8.81
2023-03-01T14:45:02.812Z,8.70
2023-03-01T14:50:22.643Z,8.64
2023-03-01T14:55:46.011Z,8.56
2023-03-01T15:01:06.094Z,8.49
2023-03-01T15:06:10.355Z,8.42
2023-03-01T15:11:26.100Z,8.34
2023-03-01T15:16:35.032Z,8.25
2023-03-01T15:21:40.048Z,8.17
2023-03-01T15:26:47.917Z,8.08
2023-03-01T15:32:06.294Z,8.00
2023-03-01T15:37:54.894Z,7.95
2023-03-01T15:43:19.033Z,7.86
2023-03-01T15:48:22.405Z,7.76
2023-03-01T15:53:26.209Z,7.66
2023-03-01T15:58:29.803Z,7.56
2023-03-01T16:03:33.099Z,7.53
2023-03-01T16:08:36.230Z,7.41
2023-03-01T16:13:39.363Z,7.27
2023-03-01T16:18:47.006Z,7.15
2023-03-01T16:31:33.356Z,6.84
2023-03-01T16:36:37.855Z,6.71
2023-03-01T16:41:41.346Z,6.59
2023-03-01T16:46:44.792Z,6.47
2023-03-01T16:51:48.254Z,6.36
2023-03-01T16:56:51.612Z,6.25
2023-03-01T17:01:54.809Z,6.17
2023-03-01T17:06:57.907Z,6.05
2023-03-01T17:12:01.236Z,5.93
2023-03-01T17:17:04.507Z,5.84
2023-03-01T17:22:07.957Z,5.72
2023-03-01T17:27:13.379Z,5.62
2023-03-01T17:32:16.748Z,5.54
2023-03-01T17:37:21.023Z,5.45
2023-03-01T17:42:24.771Z,5.35
2023-03-01T17:47:28.226Z,5.24
2023-03-01T17:52:31.783Z,5.12
2023-03-01T17:57:35.510Z,5.03
2023-03-01T18:02:39.070Z,4.92
2023-03-01T18:07:42.527Z,4.83
2023-03-01T18:12:45.725Z,4.75
2023-03-01T18:17:49.426Z,4.65
2023-03-01T18:22:53.012Z,4.63
2023-03-01T18:27:56.217Z,4.54
2023-03-01T18:32:59.329Z,4.43
2023-03-01T18:38:02.770Z,4.34
2023-03-01T18:43:06.029Z,4.25
2023-03-01T18:48:09.572Z,4.14
2023-03-01T18:53:12.830Z,4.05
2023-03-01T18:58:16.155Z,3.97
2023-03-01T19:03:19.503Z,3.90
2023-03-01T19:08:23.425Z,3.86
2023-03-01T19:13:27.551Z,3.79
2023-03-01T19:18:30.880Z,3.74
2023-03-01T19:23:35.366Z,3.61
2023-03-01T19:28:39.774Z,3.54
2023-03-01T19:33:43.932Z,3.44
2023-03-01T19:38:48.893Z,3.39
2023-03-01T19:43:52.409Z,3.31
2023-03-01T19:48:55.821Z,3.32
2023-03-01T19:53:59.365Z,3.28
2023-03-01T19:59:04.838Z,3.18
2023-03-01T20:04:10.032Z,3.10
2023-03-01T20:09:21.394Z,3.10
2023-03-01T20:14:25.284Z,3.07
2023-03-01T20:19:28.685Z,3.01
2023-03-01T20:24:32.269Z,2.97
2023-03-01T20:29:36.262Z,3.02
2023-03-01T20:34:39.588Z,3.01
2023-03-01T20:39:42.937Z,2.92
2023-03-01T20:44:46.649Z,2.83
2023-03-01T20:49:53.187Z,2.75
2023-03-01T20:54:56.392Z,2.67
2023-03-01T20:59:59.599Z,2.60
2023-03-01T21:05:03.157Z,2.57
2023-03-01T21:10:07.773Z,2.53
2023-03-01T21:15:15.110Z,2.50
2023-03-01T21:20:24.759Z,2.48
2023-03-01T21:25:35.075Z,2.44
2023-03-01T21:30:38.627Z,2.40
2023-03-01T21:35:41.988Z,2.38
2023-03-01T21:40:45.218Z,2.37
2023-03-01T21:45:49.128Z,2.33
2023-03-01T21:50:57.249Z,2.27
2023-03-01T21:56:01.793Z,2.18
2023-03-01T22:01:10.581Z,2.14
2023-03-01T22:06:23.081Z,2.10
2023-03-01T22:11:28.583Z,2.07
2023-03-01T22:16:36.212Z,2.04
2023-03-01T22:21:44.742Z,1.98
2023-03-01T22:26:50.006Z,1.96
2023-03-01T22:31:54.888Z,1.94
2023-03-01T22:36:58.792Z,1.92
2023-03-01T22:42:02.184Z,1.92
2023-03-01T22:47:05.772Z,1.88
2023-03-01T22:52:09.125Z,1.83
2023-03-01T22:57:12.352Z,1.84
2023-03-01T23:02:15.875Z,1.82
2023-03-01T23:07:19.184Z,1.83
2023-03-01T23:12:22.285Z,1.82
2023-03-01T23:17:25.565Z,1.75
2023-03-01T23:22:30.813Z,1.71
2023-03-01T23:27:37.182Z,1.65
2023-03-01T23:32:41.082Z,1.61
2023-03-01T23:37:45.757Z,1.62
2023-03-01T23:42:48.895Z,1.62
2023-03-01T23:47:52.378Z,1.59
2023-03-01T23:52:55.649Z,1.58
2023-03-01T23:57:58.961Z,1.57
